Time;durP1;ratioP1;P1;durP2;ratioP2;P2;SDS_P1;SDS_P2;PMS_P1;PMS_P2;Temp;Humidity;BMP_temperature;BMP_pressure;BME280_temperature;BME280_humidity;BME280_pressure;Samples;Min_cycle;Max_cycle;Signal;HPM_P1;HPM_P2
2022/06/12 00:01:50;;;;;;;6.85;0.90;;;16.30;99.90;;;;;;5043319;28;20025;-37
2022/06/12 00:04:16;;;;;;;3.33;1.27;;;16.30;99.90;;;;;;5040596;28;20473;-37
2022/06/12 00:06:42;;;;;;;5.43;1.17;;;16.20;99.90;;;;;;5050405;28;20040;-40
2022/06/12 00:09:08;;;;;;;2.65;0.60;;;16.20;99.90;;;;;;5052762;28;20475;-54
2022/06/12 00:11:34;;;;;;;4.43;1.25;;;16.20;99.90;;;;;;5039601;28;20465;-33
2022/06/12 00:14:04;;;;;;;4.30;1.02;;;16.10;99.90;;;;;;5054377;28;20028;-32
2022/06/12 00:16:34;;;;;;;3.92;1.13;;;16.10;99.90;;;;;;5053866;28;20036;-30
2022/06/12 00:19:02;;;;;;;3.72;1.08;;;16.10;99.90;;;;;;5055378;28;20067;-32
2022/06/12 00:21:31;;;;;;;6.35;1.50;;;16.10;99.90;;;;;;5053605;28;20036;-39
2022/06/12 00:24:00;;;;;;;14.63;2.40;;;16.00;99.90;;;;;;5037070;28;20043;-38
2022/06/12 00:26:33;;;;;;;3.00;1.00;;;16.00;99.90;;;;;;5046086;28;20036;-39
2022/06/12 00:29:04;;;;;;;3.08;0.93;;;16.00;99.90;;;;;;5055576;28;20507;-46
2022/06/12 00:31:31;;;;;;;8.27;1.05;;;15.90;99.90;;;;;;5041593;28;20495;-51
2022/06/12 00:33:57;;;;;;;8.02;1.35;;;15.90;99.90;;;;;;5048849;28;20461;-39
2022/06/12 00:36:26;;;;;;;8.38;1.20;;;15.90;99.90;;;;;;5039105;28;20456;-37
2022/06/12 00:38:51;;;;;;;10.35;1.38;;;15.90;99.90;;;;;;5036698;28;20033;-37
2022/06/12 00:41:17;;;;;;;7.13;1.45;;;15.80;99.90;;;;;;5038745;28;20029;-37
2022/06/12 00:43:43;;;;;;;4.88;1.27;;;15.80;99.90;;;;;;5046419;28;20057;-37
2022/06/12 00:46:40;;;;;;;5.28;1.27;;;15.80;99.90;;;;;;5047174;28;20430;-47
2022/06/12 00:49:20;;;;;;;7.03;1.05;;;15.80;99.90;;;;;;5055192;28;20045;-37
2022/06/12 00:51:49;;;;;;;4.65;1.33;;;15.70;99.90;;;;;;5044176;28;20029;-31
2022/06/12 00:54:17;;;;;;;3.78;1.27;;;15.70;99.90;;;;;;5049526;28;20036;-39
2022/06/12 00:56:47;;;;;;;11.10;1.95;;;15.60;99.90;;;;;;5045359;28;20059;-32
2022/06/12 00:59:33;;;;;;;9.07;1.08;;;15.70;99.90;;;;;;5036552;28;20481;-36
2022/06/12 01:01:59;;;;;;;7.45;2.55;;;15.60;99.90;;;;;;5052367;28;20052;-32
2022/06/12 01:07:15;;;;;;;5.25;1.38;;;15.60;99.90;;;;;;5049938;28;20044;-34
2022/06/12 01:09:43;;;;;;;4.53;1.00;;;15.50;99.90;;;;;;5054450;28;20032;-34
2022/06/12 01:12:14;;;;;;;9.27;1.30;;;15.60;99.90;;;;;;5052377;28;20572;-33
2022/06/12 01:14:49;;;;;;;8.40;2.28;;;15.50;99.90;;;;;;5047754;28;20124;-36
2022/06/12 01:17:16;;;;;;;7.75;0.98;;;15.50;99.90;;;;;;5042731;28;20477;-33
2022/06/12 01:19:46;;;;;;;10.45;2.22;;;15.50;99.90;;;;;;5043014;28;20068;-32
2022/06/12 01:22:33;;;;;;;15.05;2.28;;;15.50;99.90;;;;;;5052452;28;20029;-33
2022/06/12 01:25:17;;;;;;;7.35;2.50;;;15.40;99.90;;;;;;5043451;28;20497;-33
2022/06/12 01:28:13;;;;;;;3.40;0.80;;;15.40;99.90;;;;;;5038478;28;20445;-48
2022/06/12 01:30:47;;;;;;;3.03;1.13;;;15.40;99.90;;;;;;5033345;28;20033;-39
2022/06/12 01:33:25;;;;;;;10.23;2.13;;;15.40;99.90;;;;;;5034057;28;20029;-36
2022/06/12 01:36:20;;;;;;;8.60;1.95;;;15.40;99.90;;;;;;5038080;28;20030;-33
2022/06/12 01:39:07;;;;;;;7.32;1.48;;;15.40;99.90;;;;;;5033895;28;20026;-32
2022/06/12 01:41:51;;;;;;;10.57;1.75;;;15.40;99.90;;;;;;5039049;28;20040;-40
2022/06/12 01:44:39;;;;;;;8.07;1.83;;;15.40;99.90;;;;;;5052160;28;20037;-47
2022/06/12 01:47:23;;;;;;;11.00;1.50;;;15.40;99.90;;;;;;5044340;28;20030;-38
2022/06/12 01:50:07;;;;;;;10.63;1.48;;;15.30;99.90;;;;;;5046260;28;20029;-38
2022/06/12 01:52:49;;;;;;;8.40;1.55;;;15.30;99.90;;;;;;5051301;28;20491;-38
2022/06/12 01:55:33;;;;;;;5.30;1.33;;;15.30;99.90;;;;;;5053707;28;20086;-37
2022/06/12 01:58:12;;;;;;;9.95;1.67;;;15.30;99.90;;;;;;5050304;28;20493;-39
2022/06/12 02:00:43;;;;;;;9.60;1.55;;;15.30;99.90;;;;;;5051624;28;20481;-36
2022/06/12 02:03:19;;;;;;;13.35;2.22;;;15.30;99.90;;;;;;5053497;28;20033;-38
2022/06/12 02:05:53;;;;;;;12.00;1.77;;;15.30;99.90;;;;;;5053582;28;20039;-38
2022/06/12 02:08:31;;;;;;;12.30;1.80;;;15.20;99.90;;;;;;5033033;28;20112;-32
2022/06/12 02:13:55;;;;;;;7.75;1.38;;;15.30;99.90;;;;;;5035215;28;20051;-35
2022/06/12 02:16:32;;;;;;;9.27;1.50;;;15.20;99.90;;;;;;5049666;28;20149;-35
2022/06/12 02:19:15;;;;;;;10.68;1.08;;;15.30;99.90;;;;;;5041452;28;20540;-48
2022/06/12 02:21:49;;;;;;;16.70;3.03;;;15.30;99.90;;;;;;5042077;28;20481;-37
2022/06/12 02:24:25;;;;;;;5.80;1.35;;;15.30;99.90;;;;;;5031223;28;20111;-36
2022/06/12 02:27:05;;;;;;;8.13;1.45;;;15.20;99.90;;;;;;5052939;28;20029;-37
2022/06/12 02:29:39;;;;;;;8.65;1.77;;;15.10;99.90;;;;;;5051862;28;20420;-37
2022/06/12 02:32:18;;;;;;;10.50;1.83;;;15.10;99.90;;;;;;5051074;28;20504;-38
2022/06/12 02:34:58;;;;;;;12.63;2.40;;;15.10;99.90;;;;;;5049705;28;20156;-37
2022/06/12 02:37:29;;;;;;;6.18;1.52;;;15.10;99.90;;;;;;5053120;28;20401;-35
2022/06/12 02:40:02;;;;;;;13.00;2.50;;;15.10;99.90;;;;;;5034356;28;20503;-44
2022/06/12 02:42:37;;;;;;;9.45;2.10;;;15.10;99.90;;;;;;5052698;28;20040;-42
2022/06/12 02:45:19;;;;;;;10.52;1.92;;;15.10;99.90;;;;;;5045909;28;20033;-34
2022/06/12 02:47:46;;;;;;;5.10;1.55;;;15.10;99.90;;;;;;5032304;28;20037;-37
2022/06/12 02:50:13;;;;;;;;;;;15.00;99.90;;;;;;5035248;28;20026;-38
2022/06/12 02:53:18;;;;;;;6.28;1.60;;;15.00;99.90;;;;;;5052996;28;19908;-73
2022/06/12 02:55:56;;;;;;;13.43;2.55;;;15.00;99.90;;;;;;5040463;28;20045;-38
2022/06/12 02:58:42;;;;;;;11.13;2.45;;;15.00;99.90;;;;;;5048406;28;20055;-37
2022/06/12 03:01:14;;;;;;;10.10;2.33;;;15.00;99.90;;;;;;5042977;28;20029;-36
2022/06/12 03:03:46;;;;;;;15.90;2.55;;;15.00;99.90;;;;;;5033015;28;20040;-37
2022/06/12 03:06:12;;;;;;;8.00;2.03;;;15.00;99.90;;;;;;5036636;28;20026;-35
2022/06/12 03:08:44;;;;;;;7.45;2.17;;;14.90;99.90;;;;;;5038242;28;20564;-36
2022/06/12 03:11:18;;;;;;;6.28;1.55;;;14.90;99.90;;;;;;5046841;28;20037;-33
2022/06/12 03:13:45;;;;;;;10.45;2.05;;;14.90;99.90;;;;;;5036676;28;20040;-36
2022/06/12 03:16:16;;;;;;;8.70;1.65;;;14.90;99.90;;;;;;5035855;28;20445;-30
2022/06/12 03:18:49;;;;;;;5.32;1.70;;;14.90;99.90;;;;;;5041648;28;20116;-36
2022/06/12 03:21:35;;;;;;;10.40;2.70;;;14.90;99.90;;;;;;5055058;28;20472;-32
2022/06/12 03:24:38;;;;;;;6.30;1.83;;;14.90;99.90;;;;;;5036367;28;20151;-30
2022/06/12 03:27:21;;;;;;;8.15;2.70;;;14.80;99.90;;;;;;5036544;28;20477;-30
2022/06/12 03:30:08;;;;;;;10.32;1.90;;;14.80;99.90;;;;;;5052173;28;20112;-36
2022/06/12 03:32:52;;;;;;;;;;;14.80;99.90;;;;;;5054303;28;20025;-35
2022/06/12 03:35:31;;;;;;;7.45;1.77;;;14.80;99.90;;;;;;5056234;28;19912;-32
2022/06/12 03:38:15;;;;;;;6.43;1.92;;;14.80;99.90;;;;;;5052375;28;20033;-35
2022/06/12 03:40:54;;;;;;;9.27;1.50;;;14.90;99.90;;;;;;5039779;28;20033;-32
2022/06/12 03:43:30;;;;;;;12.77;2.88;;;14.80;99.90;;;;;;5053242;28;20040;-38
2022/06/12 03:46:05;;;;;;;8.63;1.63;;;14.90;99.90;;;;;;5053928;28;20485;-40
2022/06/12 03:48:47;;;;;;;10.30;1.67;;;14.80;99.90;;;;;;5051271;28;20034;-37
2022/06/12 03:51:22;;;;;;;9.57;2.05;;;14.80;99.90;;;;;;5053597;28;20493;-38
2022/06/12 03:54:00;;;;;;;10.23;1.95;;;14.80;99.90;;;;;;5055935;28;20127;-36
2022/06/12 03:59:28;;;;;;;11.85;2.15;;;14.80;99.90;;;;;;5052992;28;20044;-37
2022/06/12 04:01:54;;;;;;;10.07;2.25;;;14.80;99.90;;;;;;5052617;28;20036;-36
2022/06/12 04:04:24;;;;;;;8.98;2.08;;;14.80;99.90;;;;;;5054336;28;20489;-36
2022/06/12 04:06:52;;;;;;;8.35;2.65;;;14.70;99.90;;;;;;5035807;28;20493;-38
2022/06/12 04:09:23;;;;;;;7.63;2.30;;;14.70;99.90;;;;;;5035561;28;20033;-38
2022/06/12 04:11:59;;;;;;;10.25;3.08;;;14.70;99.90;;;;;;5035352;28;20031;-39
2022/06/12 04:14:32;;;;;;;14.13;3.17;;;14.70;99.90;;;;;;5035369;28;20033;-36
2022/06/12 04:17:00;;;;;;;7.75;2.70;;;14.70;99.90;;;;;;5034754;28;20544;-37
2022/06/12 04:19:28;;;;;;;12.63;1.95;;;14.80;99.90;;;;;;5046400;28;20038;-40
2022/06/12 04:22:09;;;;;;;14.05;2.25;;;14.80;99.90;;;;;;5054077;28;20126;-39
2022/06/12 04:24:50;;;;;;;15.60;2.40;;;14.80;99.90;;;;;;5052232;28;20134;-38
2022/06/12 04:30:25;;;;;;;11.75;2.35;;;14.80;99.90;;;;;;5034671;28;20040;-38
2022/06/12 04:33:18;;;;;;;6.63;2.50;;;14.80;99.90;;;;;;5046603;28;20465;-31
2022/06/12 04:35:56;;;;;;;5.88;2.30;;;14.90;99.90;;;;;;5055420;28;20033;-35
2022/06/12 04:38:22;;;;;;;6.43;2.30;;;14.90;99.90;;;;;;5046602;28;20095;-32
2022/06/12 04:40:49;;;;;;;16.67;2.40;;;14.90;99.90;;;;;;5050266;28;20032;-33
2022/06/12 04:43:15;;;;;;;10.75;2.70;;;14.90;99.90;;;;;;5041345;28;20064;-33
2022/06/12 04:45:42;;;;;;;15.10;2.70;;;15.00;99.90;;;;;;5049008;28;20021;-37
2022/06/12 04:48:19;;;;;;;7.93;2.17;;;15.00;99.90;;;;;;5035510;28;20516;-38
2022/06/12 04:50:45;;;;;;;13.77;2.40;;;15.00;99.90;;;;;;5035012;28;20037;-37
2022/06/12 04:53:10;;;;;;;6.63;2.05;;;15.00;99.90;;;;;;5041374;28;20036;-35
2022/06/12 04:55:36;;;;;;;13.35;2.63;;;15.10;99.90;;;;;;5054853;28;20029;-37
2022/06/12 04:58:03;;;;;;;16.67;2.50;;;15.10;99.90;;;;;;5051104;28;20107;-38
2022/06/12 05:00:29;;;;;;;;;;;15.00;99.90;;;;;;5035443;28;20477;-50
2022/06/12 05:02:55;;;;;;;17.80;3.10;;;15.10;99.90;;;;;;5037771;28;19908;-38
2022/06/12 05:05:21;;;;;;;19.23;2.67;;;15.20;99.90;;;;;;5053775;28;20045;-62
2022/06/12 05:07:46;;;;;;;10.43;2.63;;;15.20;99.90;;;;;;5044404;28;20029;-37
2022/06/12 05:10:15;;;;;;;14.20;2.67;;;15.20;99.90;;;;;;5034858;28;20489;-36
2022/06/12 05:12:40;;;;;;;13.05;3.00;;;15.20;99.90;;;;;;5034628;28;20044;-38
2022/06/12 05:15:09;;;;;;;3.22;1.75;;;15.30;99.90;;;;;;5049957;28;20030;-38
2022/06/12 05:17:35;;;;;;;9.02;2.08;;;15.30;99.90;;;;;;5034667;28;20393;-37
2022/06/12 05:20:01;;;;;;;12.60;2.38;;;15.40;99.90;;;;;;5033881;28;20056;-38
2022/06/12 05:22:26;;;;;;;11.27;2.65;;;15.50;99.90;;;;;;5033896;28;20508;-37
2022/06/12 05:24:52;;;;;;;12.55;2.35;;;15.50;99.90;;;;;;5053992;28;20040;-37
2022/06/12 05:27:23;;;;;;;14.70;2.63;;;15.50;99.90;;;;;;5044816;28;20116;-38
2022/06/12 05:29:50;;;;;;;16.67;2.78;;;15.60;99.90;;;;;;5034228;28;20029;-31
2022/06/12 05:32:19;;;;;;;12.50;2.97;;;15.70;99.90;;;;;;5032653;28;20508;-36
2022/06/12 05:34:45;;;;;;;8.50;2.63;;;15.70;99.90;;;;;;5036885;28;20060;-38
2022/06/12 05:37:11;;;;;;;15.88;2.67;;;15.90;99.90;;;;;;5054026;28;20029;-36
2022/06/12 05:39:38;;;;;;;11.85;2.78;;;15.90;99.90;;;;;;5052271;28;20036;-34
2022/06/12 05:42:04;;;;;;;11.50;2.85;;;16.00;99.90;;;;;;5053898;28;20116;-34
2022/06/12 05:44:30;;;;;;;15.35;2.42;;;16.10;99.90;;;;;;5039955;28;20441;-31
2022/06/12 05:46:59;;;;;;;12.80;2.60;;;16.20;99.90;;;;;;5050421;28;20049;-38
2022/06/12 05:49:26;;;;;;;9.60;2.60;;;16.30;99.90;;;;;;5052357;28;20496;-31
2022/06/12 05:51:52;;;;;;;19.80;3.25;;;16.40;99.90;;;;;;5050155;28;20508;-36
2022/06/12 05:54:18;;;;;;;9.70;2.88;;;16.50;99.90;;;;;;5046325;28;20039;-30
2022/06/12 05:56:45;;;;;;;8.27;3.00;;;16.50;99.90;;;;;;5051863;28;20493;-35
2022/06/12 05:59:11;;;;;;;12.63;2.90;;;16.60;99.90;;;;;;5052087;28;20362;-32
2022/06/12 06:01:38;;;;;;;13.45;3.45;;;16.80;99.90;;;;;;5040764;28;20075;-34
2022/06/12 06:04:04;;;;;;;12.25;2.25;;;17.00;99.90;;;;;;5038529;28;20029;-35
2022/06/12 06:06:33;;;;;;;7.90;2.25;;;17.10;99.90;;;;;;5033850;28;20473;-34
2022/06/12 06:08:59;;;;;;;10.85;2.08;;;17.70;99.90;;;;;;5035076;28;20109;-34
2022/06/12 06:11:27;;;;;;;16.80;3.28;;;19.00;99.90;;;;;;5040579;28;20525;-34
2022/06/12 06:13:52;;;;;;;18.55;3.15;;;19.80;99.90;;;;;;5037569;28;20030;-34
2022/06/12 06:16:18;;;;;;;21.52;3.10;;;20.20;99.90;;;;;;5035354;28;20035;-36
2022/06/12 06:18:44;;;;;;;10.05;2.58;;;20.70;99.90;;;;;;5048976;28;20103;-32
2022/06/12 06:21:11;;;;;;;9.93;2.42;;;21.80;99.90;;;;;;5049979;28;20476;-34
2022/06/12 06:23:38;;;;;;;7.70;1.92;;;22.30;99.90;;;;;;5044349;28;20102;-31
2022/06/12 06:26:03;;;;;;;12.82;3.13;;;22.00;99.90;;;;;;5051658;28;20029;-32
2022/06/12 06:28:29;;;;;;;8.73;2.00;;;22.10;99.90;;;;;;5053403;28;20086;-35
2022/06/12 06:30:55;;;;;;;15.90;2.78;;;21.70;99.90;;;;;;5053399;28;20040;-33
2022/06/12 06:33:20;;;;;;;14.32;2.50;;;21.10;99.90;;;;;;5042483;28;20056;-34
2022/06/12 06:35:47;;;;;;;12.15;2.70;;;21.00;99.90;;;;;;5044810;28;20032;-36
2022/06/12 06:38:13;;;;;;;13.20;1.98;;;21.00;99.90;;;;;;5053425;28;20526;-34
2022/06/12 06:40:39;;;;;;;13.32;2.90;;;21.60;99.90;;;;;;5048869;28;20029;-36
2022/06/12 06:43:05;;;;;;;6.65;2.13;;;21.90;99.90;;;;;;5044647;28;20052;-33
2022/06/12 06:48:15;;;;;;;15.35;2.28;;;23.30;99.90;;;;;;5051476;28;20047;-32
2022/06/12 06:50:42;;;;;;;11.52;2.38;;;22.70;99.90;;;;;;5052235;28;20033;-36
2022/06/12 06:53:09;;;;;;;5.72;1.70;;;22.20;99.90;;;;;;5034387;28;20543;-32
2022/06/12 06:55:35;;;;;;;5.18;1.77;;;21.60;99.90;;;;;;5032901;28;20013;-37
2022/06/12 06:58:01;;;;;;;9.45;1.85;;;21.30;99.90;;;;;;5034394;28;20032;-32
2022/06/12 07:00:32;;;;;;;13.23;2.13;;;21.20;99.90;;;;;;5035200;28;20478;-39
2022/06/12 07:02:58;;;;;;;9.35;1.90;;;21.50;99.90;;;;;;5034204;28;20440;-39
2022/06/12 07:05:24;;;;;;;11.07;1.98;;;22.30;99.90;;;;;;5033125;28;20025;-39
2022/06/12 07:07:50;;;;;;;5.53;1.80;;;22.90;99.90;;;;;;5042994;28;20021;-56
2022/06/12 07:10:21;;;;;;;11.00;1.95;;;23.70;99.90;;;;;;5045121;28;20021;-37
2022/06/12 07:12:47;;;;;;;10.27;2.08;;;24.20;99.90;;;;;;5037940;28;20449;-38
2022/06/12 07:15:14;;;;;;;8.90;1.95;;;25.10;99.90;;;;;;5046385;28;20087;-38
2022/06/12 07:17:41;;;;;;;10.20;1.73;;;25.90;99.20;;;;;;5037312;28;20489;-39
2022/06/12 07:20:09;;;;;;;7.87;1.73;;;26.30;98.30;;;;;;5040799;28;20464;-38
2022/06/12 07:22:35;;;;;;;10.25;2.08;;;26.60;97.90;;;;;;5039509;28;20356;-59
2022/06/12 07:25:00;;;;;;;4.68;1.15;;;27.20;97.20;;;;;;5049283;28;20503;-39
2022/06/12 07:27:26;;;;;;;5.97;1.55;;;27.00;96.50;;;;;;5049875;28;20025;-39
2022/06/12 07:29:52;;;;;;;9.35;1.80;;;27.30;96.90;;;;;;5051262;28;20040;-38
2022/06/12 07:32:18;;;;;;;12.18;2.30;;;27.20;96.60;;;;;;5044733;28;20056;-38
2022/06/12 07:34:43;;;;;;;8.15;1.40;;;27.10;96.60;;;;;;5037035;28;20087;-40
2022/06/12 07:37:09;;;;;;;8.02;2.05;;;26.80;96.60;;;;;;5045005;28;20116;-40
2022/06/12 07:39:35;;;;;;;7.80;1.70;;;26.40;97.00;;;;;;5051618;28;20497;-39
2022/06/12 07:42:01;;;;;;;7.10;1.20;;;26.20;96.80;;;;;;5042650;28;20545;-40
2022/06/12 07:44:30;;;;;;;3.40;1.40;;;26.20;96.80;;;;;;5036461;28;20115;-40
2022/06/12 07:46:57;;;;;;;2.13;1.02;;;25.70;97.40;;;;;;5042965;28;20029;-44
2022/06/12 07:49:25;;;;;;;5.07;1.15;;;25.20;97.70;;;;;;5042451;28;20025;-40
2022/06/12 07:51:52;;;;;;;7.55;2.05;;;24.80;98.10;;;;;;5041045;28;20476;-39
2022/06/12 07:54:19;;;;;;;4.85;1.48;;;24.60;98.30;;;;;;5041256;28;20590;-36
2022/06/12 07:56:45;;;;;;;9.65;1.27;;;24.70;98.00;;;;;;5054174;28;20082;-38
2022/06/12 07:59:11;;;;;;;10.25;1.80;;;24.60;98.20;;;;;;5042752;28;20037;-40
2022/06/12 08:01:38;;;;;;;5.78;1.90;;;24.60;98.00;;;;;;5044667;28;20396;-40
2022/06/12 08:04:05;;;;;;;6.53;1.48;;;24.10;97.40;;;;;;5049160;28;20473;-68
2022/06/12 08:06:31;;;;;;;4.07;1.55;;;23.80;97.70;;;;;;5035858;28;20022;-58
2022/06/12 08:08:57;;;;;;;7.88;1.35;;;23.50;97.80;;;;;;5036933;28;20082;-34
2022/06/12 08:11:24;;;;;;;6.50;1.33;;;23.10;98.90;;;;;;5043381;28;20029;-40
2022/06/12 08:13:50;;;;;;;6.50;1.87;;;22.90;99.00;;;;;;5054990;28;20465;-37
2022/06/12 08:16:16;;;;;;;8.53;2.90;;;23.10;99.30;;;;;;5053056;28;20033;-36
2022/06/12 08:18:42;;;;;;;6.25;1.40;;;22.70;99.00;;;;;;5039543;28;20501;-40
2022/06/12 08:21:11;;;;;;;4.68;1.42;;;22.90;99.50;;;;;;5051293;28;20029;-38
2022/06/12 08:23:44;;;;;;;9.32;2.35;;;23.10;99.60;;;;;;5044867;28;20048;-37
2022/06/12 08:26:15;;;;;;;4.07;1.73;;;23.60;99.10;;;;;;5035781;28;20021;-39
2022/06/12 08:28:44;;;;;;;3.45;1.45;;;24.30;97.80;;;;;;5037454;28;20029;-41
2022/06/12 08:31:13;;;;;;;2.33;1.13;;;25.00;97.10;;;;;;5042903;28;20040;-39
2022/06/12 08:33:41;;;;;;;7.20;1.83;;;25.20;96.60;;;;;;5042054;28;20029;-42
2022/06/12 08:36:09;;;;;;;6.35;1.30;;;25.70;96.00;;;;;;5052147;28;20048;-41
2022/06/12 08:38:35;;;;;;;4.30;1.08;;;25.80;95.30;;;;;;5048738;28;20025;-40
2022/06/12 08:41:08;;;;;;;5.45;1.77;;;26.00;95.20;;;;;;5035956;28;20037;-40
2022/06/12 08:43:45;;;;;;;10.07;1.90;;;25.60;95.80;;;;;;5043460;28;20025;-39
2022/06/12 08:46:22;;;;;;;7.40;1.20;;;25.30;96.00;;;;;;5055048;28;20035;-38
2022/06/12 08:48:56;;;;;;;9.00;1.67;;;25.20;96.20;;;;;;5052898;28;20025;-37
2022/06/12 08:51:30;;;;;;;4.25;1.70;;;24.90;95.20;;;;;;5040327;28;20026;-39
2022/06/12 08:54:01;;;;;;;4.03;1.20;;;24.80;95.90;;;;;;5048455;28;20113;-37
2022/06/12 08:56:47;;;;;;;3.78;1.00;;;24.70;95.40;;;;;;5041317;28;20392;-45
2022/06/12 08:59:34;;;;;;;6.90;1.73;;;24.00;96.40;;;;;;5044038;28;20052;-39
2022/06/12 09:02:05;;;;;;;5.25;1.50;;;23.90;96.20;;;;;;5042041;28;20051;-38
2022/06/12 09:04:31;;;;;;;5.47;1.63;;;23.70;97.30;;;;;;5041423;28;20501;-37
2022/06/12 09:07:13;;;;;;;3.28;1.10;;;23.60;97.00;;;;;;5035231;28;20040;-38
2022/06/12 09:09:48;;;;;;;6.97;1.90;;;23.90;97.10;;;;;;5046497;28;20524;-39
2022/06/12 09:12:30;;;;;;;4.68;1.15;;;24.20;97.30;;;;;;5040203;28;20029;-40
2022/06/12 09:15:21;;;;;;;4.32;1.40;;;24.00;96.90;;;;;;5034320;28;20044;-38
2022/06/12 09:18:04;;;;;;;2.78;0.98;;;24.20;96.40;;;;;;5038002;28;20444;-38
2022/06/12 09:20:33;;;;;;;4.75;1.33;;;24.80;95.60;;;;;;5033793;28;20568;-41
2022/06/12 09:23:17;;;;;;;11.23;1.48;;;25.40;94.80;;;;;;5033629;28;20045;-39
2022/06/12 09:25:53;;;;;;;3.20;1.38;;;25.70;94.40;;;;;;5036276;28;20034;-59
2022/06/12 09:28:43;;;;;;;4.80;1.67;;;25.50;94.60;;;;;;5058344;28;20028;-42
2022/06/12 09:31:29;;;;;;;10.82;1.52;;;25.50;94.60;;;;;;5035994;28;20038;-41
2022/06/12 09:34:10;;;;;;;;;;;25.70;94.40;;;;;;5038584;28;20418;-43
2022/06/12 09:36:59;;;;;;;5.18;1.42;;;25.70;94.20;;;;;;5046642;28;19909;-40
2022/06/12 09:39:44;;;;;;;5.90;1.70;;;25.60;94.70;;;;;;5036947;28;20037;-40
2022/06/12 09:42:19;;;;;;;4.93;1.52;;;25.70;94.10;;;;;;5033961;28;20030;-47
2022/06/12 09:45:20;;;;;;;2.50;1.05;;;25.60;94.30;;;;;;5033895;28;20092;-61
2022/06/12 09:47:53;;;;;;;3.05;1.52;;;25.80;94.10;;;;;;5051283;28;20500;-39
2022/06/12 09:50:52;;;;;;;2.15;1.20;;;25.40;93.60;;;;;;5053803;28;20480;-39
2022/06/12 09:53:39;;;;;;;7.93;1.65;;;25.30;94.20;;;;;;5040303;28;20536;-38
2022/06/12 09:56:34;;;;;;;8.52;1.38;;;25.60;94.00;;;;;;5039960;28;20026;-40
2022/06/12 09:59:17;;;;;;;2.90;0.90;;;25.50;94.40;;;;;;5034305;28;20041;-37
2022/06/12 10:01:46;;;;;;;1.80;0.80;;;26.10;93.40;;;;;;5035038;28;20434;-40
2022/06/12 10:04:19;;;;;;;4.45;1.25;;;26.70;93.00;;;;;;5034169;28;20036;-40
2022/06/12 10:07:01;;;;;;;1.67;0.93;;;27.10;92.20;;;;;;5051405;28;20025;-40
2022/06/12 10:09:35;;;;;;;6.10;1.23;;;26.20;92.00;;;;;;5050232;28;20544;-39
2022/06/12 10:12:01;;;;;;;2.67;1.00;;;25.30;92.60;;;;;;5049186;28;20032;-40
2022/06/12 10:14:34;;;;;;;2.63;1.23;;;24.70;93.50;;;;;;5034978;28;20489;-39
2022/06/12 10:17:18;;;;;;;2.38;1.00;;;24.30;93.50;;;;;;5051373;28;20031;-34
2022/06/12 10:20:00;;;;;;;2.38;1.30;;;24.50;93.10;;;;;;5033635;28;20071;-35
2022/06/12 10:22:26;;;;;;;4.00;1.23;;;24.70;92.30;;;;;;5040096;28;20044;-31
2022/06/12 10:24:51;;;;;;;1.40;1.10;;;24.60;92.50;;;;;;5032833;28;20520;-33
2022/06/12 10:27:19;;;;;;;3.60;0.93;;;24.40;93.40;;;;;;5034239;28;20117;-32
2022/06/12 10:29:50;;;;;;;4.47;1.20;;;24.70;92.70;;;;;;5033620;28;20071;-38
2022/06/12 10:32:23;;;;;;;1.88;1.13;;;24.40;92.40;;;;;;5035821;28;20466;-33
2022/06/12 10:34:49;;;;;;;3.33;0.90;;;23.50;93.40;;;;;;5043235;28;20508;-32
2022/06/12 10:37:33;;;;;;;4.75;1.00;;;23.30;94.30;;;;;;5035243;28;20025;-32
2022/06/12 10:40:29;;;;;;;4.32;1.17;;;23.70;93.50;;;;;;5043958;28;20516;-34
2022/06/12 10:43:03;;;;;;;3.63;1.03;;;24.40;93.50;;;;;;5039634;28;20041;-30
2022/06/12 10:45:35;;;;;;;4.18;1.60;;;24.20;93.40;;;;;;5048934;28;20378;-31
2022/06/12 10:48:18;;;;;;;5.38;0.75;;;24.20;93.70;;;;;;5036287;28;20025;-34
2022/06/12 10:50:57;;;;;;;3.63;1.08;;;24.40;92.80;;;;;;5034039;28;20049;-34
2022/06/12 10:53:26;;;;;;;5.05;1.15;;;24.50;92.50;;;;;;5032883;28;20469;-31
2022/06/12 10:56:10;;;;;;;4.07;1.00;;;24.50;92.60;;;;;;5033749;28;20029;-36
2022/06/12 10:58:41;;;;;;;2.10;0.90;;;24.70;92.50;;;;;;5036584;28;20092;-39
2022/06/12 11:01:24;;;;;;;3.75;1.40;;;24.10;92.40;;;;;;5034374;28;20473;-33
2022/06/12 11:04:19;;;;;;;4.72;1.13;;;23.80;92.90;;;;;;5032046;28;20137;-38
2022/06/12 11:06:47;;;;;;;2.20;0.70;;;23.80;92.70;;;;;;5038233;28;20029;-39
2022/06/12 11:09:49;;;;;;;5.82;0.90;;;24.00;92.10;;;;;;5033017;28;20029;-39
2022/06/12 11:12:27;;;;;;;3.30;0.70;;;24.00;92.10;;;;;;5036369;28;20469;-40
2022/06/12 11:14:58;;;;;;;2.25;0.75;;;23.50;92.60;;;;;;5042386;28;20492;-39
2022/06/12 11:17:54;;;;;;;2.85;1.35;;;23.00;93.30;;;;;;5047092;28;20039;-39
2022/06/12 11:20:44;;;;;;;1.30;0.80;;;23.20;93.10;;;;;;5036162;28;20029;-38
2022/06/12 11:23:37;;;;;;;5.03;1.17;;;23.40;93.10;;;;;;5045813;28;20322;-39
2022/06/12 11:26:26;;;;;;;15.00;1.70;;;23.60;93.50;;;;;;5037108;28;20064;-39
2022/06/12 11:29:16;;;;;;;5.30;1.20;;;23.60;93.70;;;;;;5047924;28;20025;-38
2022/06/12 11:35:53;;;;;;;3.92;0.95;;;23.50;93.10;;;;;;5056495;28;20043;-31
2022/06/12 11:38:36;;;;;;;6.18;1.30;;;23.70;93.50;;;;;;5004584;28;20119;-31
2022/06/12 11:41:07;;;;;;;5.20;1.27;;;23.80;93.50;;;;;;5036797;28;20371;-33
2022/06/12 11:43:38;;;;;;;3.67;0.80;;;24.10;94.00;;;;;;5036780;28;20053;-40
2022/06/12 11:46:46;;;;;;;4.43;1.00;;;24.30;92.60;;;;;;5039326;28;20489;-30
2022/06/12 11:49:31;;;;;;;2.95;0.70;;;24.00;91.90;;;;;;5033001;28;20033;-34
2022/06/12 11:52:21;;;;;;;3.28;0.73;;;23.20;92.10;;;;;;5055315;28;20039;-32
2022/06/12 11:55:14;;;;;;;2.63;0.75;;;22.70;93.00;;;;;;5044871;28;20478;-32
2022/06/12 11:58:13;;;;;;;1.10;0.70;;;22.10;92.80;;;;;;5045937;28;20028;-31
2022/06/12 12:00:53;;;;;;;1.80;0.57;;;21.50;93.80;;;;;;5036360;28;20486;-36
2022/06/12 12:03:52;;;;;;;4.82;1.20;;;21.70;94.20;;;;;;5037682;28;20056;-34
2022/06/12 12:06:47;;;;;;;5.05;1.17;;;21.60;94.60;;;;;;5034761;28;20052;-34
2022/06/12 12:09:22;;;;;;;5.85;1.13;;;21.20;95.60;;;;;;5052680;28;20036;-35
2022/06/12 12:11:53;;;;;;;2.42;1.23;;;21.30;95.50;;;;;;5055397;28;20025;-33
2022/06/12 12:14:24;;;;;;;3.58;1.30;;;21.50;95.20;;;;;;5034304;28;20034;-36
2022/06/12 12:17:00;;;;;;;3.83;1.08;;;21.70;95.80;;;;;;5035757;28;20056;-30
2022/06/12 12:20:04;;;;;;;4.13;0.80;;;22.30;95.70;;;;;;5034300;28;20076;-33
2022/06/12 12:22:42;;;;;;;4.03;0.98;;;22.90;94.70;;;;;;5033515;28;20048;-31
2022/06/12 12:25:15;;;;;;;3.45;1.73;;;23.00;94.50;;;;;;5035369;28;20489;-34
2022/06/12 12:27:45;;;;;;;1.58;0.95;;;22.30;95.00;;;;;;5050986;28;20520;-36
2022/06/12 12:30:20;;;;;;;2.13;1.52;;;21.90;94.60;;;;;;5055273;28;20021;-39
2022/06/12 12:32:48;;;;;;;4.35;1.05;;;21.90;95.60;;;;;;5055119;28;20111;-30
2022/06/12 12:41:11;;;;;;;4.50;2.00;;;22.20;95.80;;;;;;5054959;28;20037;-34
2022/06/12 12:43:32;;;;;;;5.75;1.45;;;22.50;94.60;;;;;;5034913;28;20072;-30
2022/06/12 12:46:01;;;;;;;10.18;1.42;;;21.90;94.80;;;;;;5034990;28;20493;-31
2022/06/12 12:48:41;;;;;;;7.38;1.50;;;21.90;95.10;;;;;;5035067;28;20108;-39
2022/06/12 12:51:08;;;;;;;7.28;0.90;;;21.90;94.40;;;;;;5034704;28;20044;-37
2022/06/12 12:53:38;;;;;;;2.00;1.02;;;21.90;95.20;;;;;;5034671;28;20057;-38
2022/06/12 12:56:13;;;;;;;9.02;1.20;;;21.90;94.50;;;;;;5034825;28;20040;-35
2022/06/12 12:59:05;;;;;;;5.90;1.23;;;21.70;94.40;;;;;;5034753;28;20509;-32
2022/06/12 13:01:37;;;;;;;1.00;0.80;;;21.70;94.40;;;;;;5034776;28;20111;-35
2022/06/12 13:04:22;;;;;;;5.45;1.15;;;22.20;94.80;;;;;;5034489;28;20033;-34
2022/06/12 13:07:09;;;;;;;2.22;0.70;;;22.40;95.20;;;;;;5034635;28;20112;-31
2022/06/12 13:10:15;;;;;;;4.05;1.27;;;22.70;94.70;;;;;;5034617;28;20029;-34
2022/06/12 13:12:58;;;;;;;2.10;1.23;;;22.40;93.80;;;;;;5041635;28;20108;-38
2022/06/12 13:15:42;;;;;;;1.48;0.63;;;22.30;93.80;;;;;;5054471;28;20044;-34
2022/06/12 13:18:36;;;;;;;2.78;0.95;;;22.80;93.40;;;;;;5054395;28;20162;-33
2022/06/12 13:21:08;;;;;;;5.25;0.93;;;23.50;92.50;;;;;;5053420;28;20546;-33
2022/06/12 13:23:45;;;;;;;4.65;0.88;;;23.90;93.30;;;;;;5053918;28;20045;-32
2022/06/12 13:26:14;;;;;;;5.38;0.85;;;24.20;91.70;;;;;;5054233;28;20099;-37
2022/06/12 13:28:41;;;;;;;3.80;0.95;;;24.50;92.40;;;;;;5054032;28;20103;-37
2022/06/12 13:31:18;;;;;;;3.97;0.80;;;24.70;91.20;;;;;;5054114;28;20033;-31
2022/06/12 13:33:54;;;;;;;6.32;1.08;;;24.60;91.00;;;;;;5034445;28;20518;-33
2022/06/12 13:36:26;;;;;;;4.40;0.60;;;24.40;91.20;;;;;;5033188;28;20026;-36
2022/06/12 13:39:01;;;;;;;4.70;0.63;;;24.20;91.50;;;;;;5034138;28;20033;-32
2022/06/12 13:41:49;;;;;;;4.53;0.93;;;24.30;91.20;;;;;;5034035;28;20064;-31
2022/06/12 13:44:29;;;;;;;4.13;0.80;;;24.30;91.20;;;;;;5034207;28;20041;-34
2022/06/12 13:46:57;;;;;;;1.38;0.90;;;24.40;91.70;;;;;;5032598;28;20390;-34